sensor_id;sensor_type;location;lat;lon;timestamp;noise_LAeq;noise_LA_min;noise_LA_max;noise_LA01;noise_LA95
64077;Laerm;51039;49.696;10.808;2023-06-22T00:01:02;37.91;36.75;38.96;;
64077;Laerm;51039;49.696;10.808;2023-06-22T00:03:27;37.93;36.74;39.01;;
64077;Laerm;51039;49.696;10.808;2023-06-22T00:05:53;37.91;36.55;39.12;;
64077;Laerm;51039;49.696;10.808;2023-06-22T00:08:19;37.88;36.60;38.85;;
64077;Laerm;51039;49.696;10.808;2023-06-22T00:10:45;37.86;36.56;38.99;;
64077;Laerm;51039;49.696;10.808;2023-06-22T00:13:12;37.86;36.66;39.04;;
64077;Laerm;51039;49.696;10.808;2023-06-22T00:15:39;37.85;36.64;38.92;;
64077;Laerm;51039;49.696;10.808;2023-06-22T00:18:08;37.84;36.72;39.07;;
64077;Laerm;51039;49.696;10.808;2023-06-22T00:20:34;37.84;36.73;38.96;;
64077;Laerm;51039;49.696;10.808;2023-06-22T00:23:03;37.86;36.56;38.98;;
64077;Laerm;51039;49.696;10.808;2023-06-22T00:25:37;37.85;36.68;38.97;;
64077;Laerm;51039;49.696;10.808;2023-06-22T00:28:05;37.85;36.62;38.90;;
64077;Laerm;51039;49.696;10.808;2023-06-22T00:30:31;37.85;36.62;38.90;;
64077;Laerm;51039;49.696;10.808;2023-06-22T00:32:57;37.86;36.70;39.19;;
64077;Laerm;51039;49.696;10.808;2023-06-22T00:35:23;37.84;36.60;39.00;;
64077;Laerm;51039;49.696;10.808;2023-06-22T00:37:54;37.80;36.65;38.96;;
64077;Laerm;51039;49.696;10.808;2023-06-22T00:40:25;37.78;36.51;38.99;;
64077;Laerm;51039;49.696;10.808;2023-06-22T00:42:50;37.79;36.70;38.97;;
64077;Laerm;51039;49.696;10.808;2023-06-22T00:45:16;37.78;36.55;39.01;;
64077;Laerm;51039;49.696;10.808;2023-06-22T00:47:41;37.77;36.45;38.97;;
64077;Laerm;51039;49.696;10.808;2023-06-22T00:50:08;37.76;36.61;38.79;;
64077;Laerm;51039;49.696;10.808;2023-06-22T00:52:35;37.78;36.69;39.00;;
64077;Laerm;51039;49.696;10.808;2023-06-22T00:55:02;37.78;36.56;38.93;;
64077;Laerm;51039;49.696;10.808;2023-06-22T00:57:28;37.79;36.57;38.97;;
64077;Laerm;51039;49.696;10.808;2023-06-22T00:59:53;37.80;36.48;38.91;;
64077;Laerm;51039;49.696;10.808;2023-06-22T01:02:19;37.80;36.57;39.14;;
64077;Laerm;51039;49.696;10.808;2023-06-22T01:04:45;37.80;36.62;38.95;;
64077;Laerm;51039;49.696;10.808;2023-06-22T01:09:51;37.75;36.53;39.06;;
64077;Laerm;51039;49.696;10.808;2023-06-22T01:12:22;37.77;36.58;39.05;;
64077;Laerm;51039;49.696;10.808;2023-06-22T01:14:55;37.79;36.51;39.10;;
64077;Laerm;51039;49.696;10.808;2023-06-22T01:17:24;37.82;36.72;38.96;;
64077;Laerm;51039;49.696;10.808;2023-06-22T01:19:51;37.87;36.68;39.02;;
64077;Laerm;51039;49.696;10.808;2023-06-22T01:22:29;37.92;36.65;39.20;;
64077;Laerm;51039;49.696;10.808;2023-06-22T01:25:12;37.94;36.68;38.99;;
64077;Laerm;51039;49.696;10.808;2023-06-22T01:28:06;37.96;36.66;39.01;;
64077;Laerm;51039;49.696;10.808;2023-06-22T01:30:40;37.98;36.84;39.26;;
64077;Laerm;51039;49.696;10.808;2023-06-22T01:33:10;37.99;36.64;39.10;;
64077;Laerm;51039;49.696;10.808;2023-06-22T01:35:38;38.00;36.85;39.01;;
64077;Laerm;51039;49.696;10.808;2023-06-22T01:38:04;38.00;36.87;39.16;;
64077;Laerm;51039;49.696;10.808;2023-06-22T01:40:32;38.01;36.84;39.32;;
64077;Laerm;51039;49.696;10.808;2023-06-22T01:43:00;38.02;36.71;39.27;;
64077;Laerm;51039;49.696;10.808;2023-06-22T01:45:27;38.01;36.62;39.08;;
64077;Laerm;51039;49.696;10.808;2023-06-22T01:47:53;38.02;36.78;39.26;;
64077;Laerm;51039;49.696;10.808;2023-06-22T01:50:19;38.03;36.87;39.17;;
64077;Laerm;51039;49.696;10.808;2023-06-22T01:52:45;38.02;36.92;39.07;;
64077;Laerm;51039;49.696;10.808;2023-06-22T01:55:10;38.02;36.70;39.12;;
64077;Laerm;51039;49.696;10.808;2023-06-22T01:57:36;38.01;36.99;39.06;;
64077;Laerm;51039;49.696;10.808;2023-06-22T02:00:04;37.97;36.85;39.02;;
64077;Laerm;51039;49.696;10.808;2023-06-22T02:02:36;38.00;36.54;39.20;;
64077;Laerm;51039;49.696;10.808;2023-06-22T02:05:09;37.97;36.89;39.20;;
64077;Laerm;51039;49.696;10.808;2023-06-22T02:07:47;37.97;36.82;39.22;;
64077;Laerm;51039;49.696;10.808;2023-06-22T02:10:16;37.93;36.64;39.00;;
64077;Laerm;51039;49.696;10.808;2023-06-22T02:12:45;37.89;36.59;38.90;;
64077;Laerm;51039;49.696;10.808;2023-06-22T02:15:11;37.86;36.84;38.96;;
64077;Laerm;51039;49.696;10.808;2023-06-22T02:17:38;37.83;36.77;39.01;;
64077;Laerm;51039;49.696;10.808;2023-06-22T02:20:03;37.81;36.52;39.30;;
64077;Laerm;51039;49.696;10.808;2023-06-22T02:22:31;37.81;36.49;38.91;;
64077;Laerm;51039;49.696;10.808;2023-06-22T02:25:15;37.81;36.62;38.95;;
64077;Laerm;51039;49.696;10.808;2023-06-22T02:27:40;37.79;36.65;51.13;;
64077;Laerm;51039;49.696;10.808;2023-06-22T02:30:10;37.73;36.62;38.75;;
64077;Laerm;51039;49.696;10.808;2023-06-22T02:32:36;37.73;36.54;38.96;;
64077;Laerm;51039;49.696;10.808;2023-06-22T02:35:01;37.77;36.41;38.92;;
64077;Laerm;51039;49.696;10.808;2023-06-22T02:37:32;37.85;36.79;38.94;;
64077;Laerm;51039;49.696;10.808;2023-06-22T02:39:57;37.88;36.72;38.99;;
64077;Laerm;51039;49.696;10.808;2023-06-22T02:42:23;37.89;36.72;38.87;;
64077;Laerm;51039;49.696;10.808;2023-06-22T02:44:48;37.89;36.76;38.96;;
64077;Laerm;51039;49.696;10.808;2023-06-22T02:47:13;37.87;36.49;38.95;;
64077;Laerm;51039;49.696;10.808;2023-06-22T02:49:39;37.87;36.58;39.15;;
64077;Laerm;51039;49.696;10.808;2023-06-22T02:52:04;37.86;36.58;39.13;;
64077;Laerm;51039;49.696;10.808;2023-06-22T02:54:29;37.86;36.58;38.98;;
64077;Laerm;51039;49.696;10.808;2023-06-22T02:56:55;37.84;36.45;39.00;;
64077;Laerm;51039;49.696;10.808;2023-06-22T02:59:20;37.83;36.29;39.04;;
64077;Laerm;51039;49.696;10.808;2023-06-22T03:01:49;37.82;36.70;38.94;;
64077;Laerm;51039;49.696;10.808;2023-06-22T03:04:15;37.81;36.48;39.00;;
64077;Laerm;51039;49.696;10.808;2023-06-22T03:06:41;37.80;36.30;38.91;;
64077;Laerm;51039;49.696;10.808;2023-06-22T03:09:06;37.80;36.64;38.94;;
64077;Laerm;51039;49.696;10.808;2023-06-22T03:11:32;37.77;36.58;38.83;;
64077;Laerm;51039;49.696;10.808;2023-06-22T03:13:58;37.76;36.17;39.04;;
64077;Laerm;51039;49.696;10.808;2023-06-22T03:16:24;37.74;36.50;38.85;;
64077;Laerm;51039;49.696;10.808;2023-06-22T03:18:49;37.71;36.39;38.84;;
64077;Laerm;51039;49.696;10.808;2023-06-22T03:21:14;37.71;36.60;38.73;;
64077;Laerm;51039;49.696;10.808;2023-06-22T03:23:41;37.74;36.51;38.76;;
64077;Laerm;51039;49.696;10.808;2023-06-22T03:26:06;37.79;36.57;39.15;;
64077;Laerm;51039;49.696;10.808;2023-06-22T03:28:31;37.80;36.59;38.87;;
64077;Laerm;51039;49.696;10.808;2023-06-22T03:30:57;37.81;36.77;38.80;;
64077;Laerm;51039;49.696;10.808;2023-06-22T03:33:23;37.83;36.60;38.79;;
64077;Laerm;51039;49.696;10.808;2023-06-22T03:35:48;37.81;36.57;38.95;;
64077;Laerm;51039;49.696;10.808;2023-06-22T03:38:15;37.82;36.65;39.05;;
64077;Laerm;51039;49.696;10.808;2023-06-22T03:40:40;37.82;36.66;39.05;;
64077;Laerm;51039;49.696;10.808;2023-06-22T03:43:05;37.82;36.47;38.89;;
64077;Laerm;51039;49.696;10.808;2023-06-22T03:45:30;37.81;36.58;38.86;;
64077;Laerm;51039;49.696;10.808;2023-06-22T03:47:56;37.84;36.52;39.12;;
64077;Laerm;51039;49.696;10.808;2023-06-22T03:50:21;37.87;36.76;38.96;;
64077;Laerm;51039;49.696;10.808;2023-06-22T03:52:47;37.88;36.75;38.99;;
64077;Laerm;51039;49.696;10.808;2023-06-22T03:55:12;37.93;36.73;39.03;;
64077;Laerm;51039;49.696;10.808;2023-06-22T03:57:37;37.97;36.67;39.19;;
64077;Laerm;51039;49.696;10.808;2023-06-22T04:00:03;38.05;37.03;39.27;;
64077;Laerm;51039;49.696;10.808;2023-06-22T04:02:33;38.14;36.69;39.66;;
64077;Laerm;51039;49.696;10.808;2023-06-22T04:04:58;38.23;37.06;39.35;;
64077;Laerm;51039;49.696;10.808;2023-06-22T04:07:23;38.34;37.22;39.53;;
64077;Laerm;51039;49.696;10.808;2023-06-22T04:09:49;38.47;37.09;39.67;;
64077;Laerm;51039;49.696;10.808;2023-06-22T04:12:14;38.59;37.43;39.66;;
64077;Laerm;51039;49.696;10.808;2023-06-22T04:14:39;38.71;37.40;39.82;;
64077;Laerm;51039;49.696;10.808;2023-06-22T04:17:04;38.85;37.52;39.95;;
64077;Laerm;51039;49.696;10.808;2023-06-22T04:19:30;39.00;37.89;40.21;;
64077;Laerm;51039;49.696;10.808;2023-06-22T04:21:55;39.22;38.00;40.52;;
64077;Laerm;51039;49.696;10.808;2023-06-22T04:24:20;39.46;38.23;40.63;;
64077;Laerm;51039;49.696;10.808;2023-06-22T04:26:46;39.64;38.53;40.68;;
64077;Laerm;51039;49.696;10.808;2023-06-22T04:29:12;39.75;38.57;40.98;;
64077;Laerm;51039;49.696;10.808;2023-06-22T04:31:37;39.89;38.54;41.16;;
64077;Laerm;51039;49.696;10.808;2023-06-22T04:34:04;40.00;38.69;41.16;;
64077;Laerm;51039;49.696;10.808;2023-06-22T04:39:06;40.12;38.89;41.23;;
64077;Laerm;51039;49.696;10.808;2023-06-22T04:41:32;40.02;38.68;41.13;;
64077;Laerm;51039;49.696;10.808;2023-06-22T04:44:08;39.97;38.53;41.15;;
64077;Laerm;51039;49.696;10.808;2023-06-22T04:46:33;39.89;38.59;41.01;;
64077;Laerm;51039;49.696;10.808;2023-06-22T04:49:04;40.03;38.85;41.16;;
64077;Laerm;51039;49.696;10.808;2023-06-22T04:51:31;40.23;39.09;41.37;;
64077;Laerm;51039;49.696;10.808;2023-06-22T04:53:57;40.46;39.26;41.56;;
64077;Laerm;51039;49.696;10.808;2023-06-22T04:56:26;40.64;39.24;41.87;;
64077;Laerm;51039;49.696;10.808;2023-06-22T04:58:53;40.75;39.42;41.89;;
64077;Laerm;51039;49.696;10.808;2023-06-22T05:01:21;41.08;39.74;42.35;;
64077;Laerm;51039;49.696;10.808;2023-06-22T05:03:47;41.49;40.21;42.81;;
64077;Laerm;51039;49.696;10.808;2023-06-22T05:06:13;41.91;40.77;42.96;;
64077;Laerm;51039;49.696;10.808;2023-06-22T05:08:39;42.19;40.91;43.51;;
64077;Laerm;51039;49.696;10.808;2023-06-22T05:11:04;42.38;41.08;43.43;;
64077;Laerm;51039;49.696;10.808;2023-06-22T05:13:30;42.51;41.19;43.81;;
64077;Laerm;51039;49.696;10.808;2023-06-22T05:15:55;42.69;41.44;43.82;;
64077;Laerm;51039;49.696;10.808;2023-06-22T05:18:26;43.15;41.74;44.35;;
64077;Laerm;51039;49.696;10.808;2023-06-22T05:20:52;43.74;42.16;44.95;;
64077;Laerm;51039;49.696;10.808;2023-06-22T05:23:17;44.17;42.69;45.38;;
64077;Laerm;51039;49.696;10.808;2023-06-22T05:25:42;44.38;43.22;45.89;;
64077;Laerm;51039;49.696;10.808;2023-06-22T05:28:08;44.55;43.31;45.80;;
64077;Laerm;51039;49.696;10.808;2023-06-22T05:30:36;44.52;43.30;45.72;;
64077;Laerm;51039;49.696;10.808;2023-06-22T05:33:01;44.48;43.27;45.67;;
64077;Laerm;51039;49.696;10.808;2023-06-22T05:35:27;44.35;42.87;45.59;;
64077;Laerm;51039;49.696;10.808;2023-06-22T05:37:52;44.17;42.70;45.29;;
64077;Laerm;51039;49.696;10.808;2023-06-22T05:40:17;44.03;42.87;45.10;;
64077;Laerm;51039;49.696;10.808;2023-06-22T05:42:43;43.92;42.74;45.03;;
64077;Laerm;51039;49.696;10.808;2023-06-22T05:45:09;43.78;42.43;44.97;;
64077;Laerm;51039;49.696;10.808;2023-06-22T05:47:34;43.79;42.57;44.98;;
64077;Laerm;51039;49.696;10.808;2023-06-22T05:49:59;43.82;42.66;45.05;;
64077;Laerm;51039;49.696;10.808;2023-06-22T05:52:25;44.05;42.64;45.18;;
64077;Laerm;51039;49.696;10.808;2023-06-22T05:54:50;44.17;42.89;45.32;;
64077;Laerm;51039;49.696;10.808;2023-06-22T05:57:16;44.21;43.08;45.36;;
64077;Laerm;51039;49.696;10.808;2023-06-22T05:59:41;44.46;43.08;45.68;;
64077;Laerm;51039;49.696;10.808;2023-06-22T06:02:07;44.58;43.44;45.70;;
64077;Laerm;51039;49.696;10.808;2023-06-22T06:04:32;44.65;43.32;45.89;;
64077;Laerm;51039;49.696;10.808;2023-06-22T06:06:57;44.71;43.51;45.82;;
64077;Laerm;51039;49.696;10.808;2023-06-22T06:09:22;44.69;43.43;45.96;;
64077;Laerm;51039;49.696;10.808;2023-06-22T06:11:48;44.68;43.39;45.86;;
64077;Laerm;51039;49.696;10.808;2023-06-22T06:14:13;44.70;43.27;45.86;;
64077;Laerm;51039;49.696;10.808;2023-06-22T06:16:39;44.88;43.76;46.28;;
64077;Laerm;51039;49.696;10.808;2023-06-22T06:19:04;45.12;43.74;46.18;;
64077;Laerm;51039;49.696;10.808;2023-06-22T06:21:30;45.24;43.93;46.39;;
64077;Laerm;51039;49.696;10.808;2023-06-22T06:23:55;45.40;43.84;46.66;;
64077;Laerm;51039;49.696;10.808;2023-06-22T06:26:21;45.53;44.30;46.68;;
64077;Laerm;51039;49.696;10.808;2023-06-22T06:28:56;45.55;44.22;46.79;;
64077;Laerm;51039;49.696;10.808;2023-06-22T06:31:21;45.54;44.42;46.83;;
64077;Laerm;51039;49.696;10.808;2023-06-22T06:33:47;45.56;44.36;46.79;;
64077;Laerm;51039;49.696;10.808;2023-06-22T06:36:12;45.63;44.11;46.80;;
64077;Laerm;51039;49.696;10.808;2023-06-22T06:38:38;45.68;44.21;46.92;;
64077;Laerm;51039;49.696;10.808;2023-06-22T06:41:03;45.59;44.20;47.04;;
64077;Laerm;51039;49.696;10.808;2023-06-22T06:43:29;45.53;44.15;46.73;;
64077;Laerm;51039;49.696;10.808;2023-06-22T06:45:54;45.52;44.16;46.79;;
64077;Laerm;51039;49.696;10.808;2023-06-22T06:48:19;45.56;44.14;46.72;;
64077;Laerm;51039;49.696;10.808;2023-06-22T06:50:44;45.58;43.73;46.65;;
64077;Laerm;51039;49.696;10.808;2023-06-22T06:53:10;45.55;44.16;46.84;;
64077;Laerm;51039;49.696;10.808;2023-06-22T06:55:35;45.45;43.92;46.76;;
64077;Laerm;51039;49.696;10.808;2023-06-22T06:58:02;45.43;44.14;46.63;;
64077;Laerm;51039;49.696;10.808;2023-06-22T07:00:29;45.42;44.01;46.86;;
64077;Laerm;51039;49.696;10.808;2023-06-22T07:02:54;45.42;44.06;46.89;;
64077;Laerm;51039;49.696;10.808;2023-06-22T07:05:19;45.48;44.22;46.63;;
64077;Laerm;51039;49.696;10.808;2023-06-22T07:07:45;45.43;44.15;46.99;;
64077;Laerm;51039;49.696;10.808;2023-06-22T07:10:11;45.35;43.97;46.69;;
64077;Laerm;51039;49.696;10.808;2023-06-22T07:12:36;45.39;43.78;46.57;;
64077;Laerm;51039;49.696;10.808;2023-06-22T07:15:07;45.46;43.88;46.58;;
64077;Laerm;51039;49.696;10.808;2023-06-22T07:17:37;45.43;44.17;46.68;;
64077;Laerm;51039;49.696;10.808;2023-06-22T07:20:03;45.41;44.16;46.63;;
64077;Laerm;51039;49.696;10.808;2023-06-22T07:22:35;45.44;44.18;46.68;;
64077;Laerm;51039;49.696;10.808;2023-06-22T07:25:00;45.42;44.06;46.60;;
64077;Laerm;51039;49.696;10.808;2023-06-22T07:27:26;45.45;44.19;46.91;;
64077;Laerm;51039;49.696;10.808;2023-06-22T07:29:52;45.47;43.96;46.61;;
64077;Laerm;51039;49.696;10.808;2023-06-22T07:32:17;45.41;44.11;46.55;;
64077;Laerm;51039;49.696;10.808;2023-06-22T07:34:42;45.38;44.07;46.70;;
64077;Laerm;51039;49.696;10.808;2023-06-22T07:37:09;45.35;44.12;46.61;;
64077;Laerm;51039;49.696;10.808;2023-06-22T07:39:34;45.33;43.96;46.50;;
64077;Laerm;51039;49.696;10.808;2023-06-22T07:41:59;45.34;44.05;46.78;;
64077;Laerm;51039;49.696;10.808;2023-06-22T07:44:25;45.36;44.03;46.58;;
64077;Laerm;51039;49.696;10.808;2023-06-22T07:46:50;45.39;44.09;46.65;;
64077;Laerm;51039;49.696;10.808;2023-06-22T07:49:17;45.45;44.00;46.84;;
64077;Laerm;51039;49.696;10.808;2023-06-22T07:51:42;45.46;43.97;46.74;;
64077;Laerm;51039;49.696;10.808;2023-06-22T07:54:09;45.48;44.20;46.75;;
64077;Laerm;51039;49.696;10.808;2023-06-22T07:56:34;45.39;44.06;46.72;;
64077;Laerm;51039;49.696;10.808;2023-06-22T07:58:59;45.32;44.03;46.75;;
64077;Laerm;51039;49.696;10.808;2023-06-22T08:01:26;45.31;43.93;46.84;;
64077;Laerm;51039;49.696;10.808;2023-06-22T08:03:51;45.31;43.80;46.64;;
64077;Laerm;51039;49.696;10.808;2023-06-22T08:06:16;45.33;43.86;46.63;;
64077;Laerm;51039;49.696;10.808;2023-06-22T08:08:42;45.32;43.89;46.52;;
64077;Laerm;51039;49.696;10.808;2023-06-22T08:11:08;45.30;43.96;46.79;;
64077;Laerm;51039;49.696;10.808;2023-06-22T08:13:34;45.37;43.89;46.69;;
64077;Laerm;51039;49.696;10.808;2023-06-22T08:15:59;45.38;44.04;46.65;;
64077;Laerm;51039;49.696;10.808;2023-06-22T08:18:24;45.32;43.93;46.64;;
64077;Laerm;51039;49.696;10.808;2023-06-22T08:20:50;45.27;43.95;46.65;;
64077;Laerm;51039;49.696;10.808;2023-06-22T08:23:15;45.16;43.65;46.41;;
64077;Laerm;51039;49.696;10.808;2023-06-22T08:25:40;45.18;43.91;46.60;;
64077;Laerm;51039;49.696;10.808;2023-06-22T08:28:06;45.24;43.93;46.48;;
64077;Laerm;51039;49.696;10.808;2023-06-22T08:30:32;45.15;43.80;46.53;;
64077;Laerm;51039;49.696;10.808;2023-06-22T08:32:57;45.10;43.85;46.25;;
64077;Laerm;51039;49.696;10.808;2023-06-22T08:35:23;45.15;43.71;46.50;;
64077;Laerm;51039;49.696;10.808;2023-06-22T08:37:48;45.11;43.91;46.47;;
64077;Laerm;51039;49.696;10.808;2023-06-22T08:40:18;44.88;43.56;46.29;;
64077;Laerm;51039;49.696;10.808;2023-06-22T08:42:44;44.87;43.41;46.07;;
64077;Laerm;51039;49.696;10.808;2023-06-22T08:45:10;44.89;43.63;46.10;;
64077;Laerm;51039;49.696;10.808;2023-06-22T08:47:35;44.87;43.38;46.12;;
64077;Laerm;51039;49.696;10.808;2023-06-22T08:50:01;44.92;43.32;46.26;;
64077;Laerm;51039;49.696;10.808;2023-06-22T08:52:29;44.98;43.60;46.39;;
64077;Laerm;51039;49.696;10.808;2023-06-22T08:54:54;44.99;43.36;46.56;;
64077;Laerm;51039;49.696;10.808;2023-06-22T08:57:21;44.98;43.55;46.42;;
64077;Laerm;51039;49.696;10.808;2023-06-22T08:59:46;44.81;43.40;46.09;;
64077;Laerm;51039;49.696;10.808;2023-06-22T09:02:11;44.79;43.29;46.24;;
64077;Laerm;51039;49.696;10.808;2023-06-22T09:04:36;44.92;43.56;46.14;;
64077;Laerm;51039;49.696;10.808;2023-06-22T09:07:02;44.97;43.54;46.21;;
64077;Laerm;51039;49.696;10.808;2023-06-22T09:09:27;44.92;43.38;46.34;;
64077;Laerm;51039;49.696;10.808;2023-06-22T09:11:53;44.85;43.35;46.09;;
64077;Laerm;51039;49.696;10.808;2023-06-22T09:14:18;44.88;43.22;46.17;;
64077;Laerm;51039;49.696;10.808;2023-06-22T09:16:43;44.84;43.45;46.16;;
64077;Laerm;51039;49.696;10.808;2023-06-22T09:19:09;44.84;43.45;46.16;;
64077;Laerm;51039;49.696;10.808;2023-06-22T09:21:34;44.78;43.40;46.20;;
64077;Laerm;51039;49.696;10.808;2023-06-22T09:23:59;44.61;43.25;45.83;;
64077;Laerm;51039;49.696;10.808;2023-06-22T09:26:25;44.63;43.16;45.97;;
64077;Laerm;51039;49.696;10.808;2023-06-22T09:28:50;44.67;43.08;45.87;;
64077;Laerm;51039;49.696;10.808;2023-06-22T09:31:16;44.67;43.04;46.01;;
64077;Laerm;51039;49.696;10.808;2023-06-22T09:33:42;44.70;43.29;45.97;;
64077;Laerm;51039;49.696;10.808;2023-06-22T09:36:07;44.59;42.89;46.24;;
64077;Laerm;51039;49.696;10.808;2023-06-22T09:38:36;44.50;42.89;45.86;;
64077;Laerm;51039;49.696;10.808;2023-06-22T09:41:02;44.52;43.10;45.77;;
64077;Laerm;51039;49.696;10.808;2023-06-22T09:43:28;44.55;42.76;47.05;;
64077;Laerm;51039;49.696;10.808;2023-06-22T09:45:53;44.52;43.33;45.84;;
64077;Laerm;51039;49.696;10.808;2023-06-22T09:48:18;44.49;42.65;45.96;;
64077;Laerm;51039;49.696;10.808;2023-06-22T09:50:44;44.41;43.03;45.50;;
64077;Laerm;51039;49.696;10.808;2023-06-22T09:53:09;44.56;42.93;46.04;;
64077;Laerm;51039;49.696;10.808;2023-06-22T09:55:34;44.51;43.02;45.75;;
64077;Laerm;51039;49.696;10.808;2023-06-22T09:58:00;44.42;43.09;45.66;;
64077;Laerm;51039;49.696;10.808;2023-06-22T10:00:25;44.40;42.84;45.73;;
64077;Laerm;51039;49.696;10.808;2023-06-22T10:02:51;44.37;42.83;45.70;;
64077;Laerm;51039;49.696;10.808;2023-06-22T10:05:17;44.30;42.76;45.79;;
64077;Laerm;51039;49.696;10.808;2023-06-22T10:07:42;44.29;42.75;45.59;;
64077;Laerm;51039;49.696;10.808;2023-06-22T10:10:10;44.29;42.84;45.74;;
64077;Laerm;51039;49.696;10.808;2023-06-22T10:12:35;44.24;43.03;45.63;;
64077;Laerm;51039;49.696;10.808;2023-06-22T10:15:00;44.32;42.62;45.80;;
64077;Laerm;51039;49.696;10.808;2023-06-22T10:17:25;44.37;42.99;45.67;;
64077;Laerm;51039;49.696;10.808;2023-06-22T10:19:51;44.34;42.51;45.81;;
64077;Laerm;51039;49.696;10.808;2023-06-22T10:22:16;44.36;42.91;45.87;;
64077;Laerm;51039;49.696;10.808;2023-06-22T10:24:41;44.33;42.52;48.21;;
64077;Laerm;51039;49.696;10.808;2023-06-22T10:27:11;44.24;42.71;46.01;;
64077;Laerm;51039;49.696;10.808;2023-06-22T10:29:37;44.25;42.55;45.49;;
64077;Laerm;51039;49.696;10.808;2023-06-22T10:32:02;44.15;42.49;45.54;;
64077;Laerm;51039;49.696;10.808;2023-06-22T10:34:28;44.09;42.52;45.40;;
64077;Laerm;51039;49.696;10.808;2023-06-22T10:36:53;44.09;42.70;45.51;;
64077;Laerm;51039;49.696;10.808;2023-06-22T10:39:18;44.19;42.79;45.46;;
64077;Laerm;51039;49.696;10.808;2023-06-22T10:41:44;44.08;42.67;45.51;;
64077;Laerm;51039;49.696;10.808;2023-06-22T10:44:10;44.15;42.80;45.59;;
64077;Laerm;51039;49.696;10.808;2023-06-22T10:46:35;44.24;42.85;45.69;;
64077;Laerm;51039;49.696;10.808;2023-06-22T10:49:01;44.23;42.79;45.47;;
64077;Laerm;51039;49.696;10.808;2023-06-22T10:51:26;44.15;42.77;45.49;;
64077;Laerm;51039;49.696;10.808;2023-06-22T10:53:53;44.28;42.92;45.61;;
64077;Laerm;51039;49.696;10.808;2023-06-22T10:56:18;44.26;42.92;45.59;;
64077;Laerm;51039;49.696;10.808;2023-06-22T10:58:44;44.19;42.87;45.33;;
64077;Laerm;51039;49.696;10.808;2023-06-22T11:01:10;44.31;43.05;45.79;;
64077;Laerm;51039;49.696;10.808;2023-06-22T11:03:35;44.40;42.87;45.74;;
64077;Laerm;51039;49.696;10.808;2023-06-22T11:06:00;44.47;42.94;45.64;;
64077;Laerm;51039;49.696;10.808;2023-06-22T11:08:26;44.50;43.03;45.99;;
64077;Laerm;51039;49.696;10.808;2023-06-22T11:10:51;44.54;43.05;45.71;;
64077;Laerm;51039;49.696;10.808;2023-06-22T11:13:17;44.58;43.10;45.88;;
64077;Laerm;51039;49.696;10.808;2023-06-22T11:15:42;44.63;43.30;45.98;;
64077;Laerm;51039;49.696;10.808;2023-06-22T11:18:07;44.65;43.36;46.04;;
64077;Laerm;51039;49.696;10.808;2023-06-22T11:20:33;44.66;43.34;46.02;;
64077;Laerm;51039;49.696;10.808;2023-06-22T11:23:03;44.75;43.42;46.18;;
64077;Laerm;51039;49.696;10.808;2023-06-22T11:25:29;44.75;43.33;46.18;;
64077;Laerm;51039;49.696;10.808;2023-06-22T11:27:54;44.76;43.36;46.00;;
64077;Laerm;51039;49.696;10.808;2023-06-22T11:30:19;44.77;43.36;46.02;;
64077;Laerm;51039;49.696;10.808;2023-06-22T11:32:45;44.78;43.34;46.17;;
64077;Laerm;51039;49.696;10.808;2023-06-22T11:35:10;44.84;43.62;46.24;;
64077;Laerm;51039;49.696;10.808;2023-06-22T11:37:35;44.81;43.58;46.01;;
64077;Laerm;51039;49.696;10.808;2023-06-22T11:40:01;44.81;43.34;46.06;;
64077;Laerm;51039;49.696;10.808;2023-06-22T11:42:28;44.83;43.21;46.02;;
64077;Laerm;51039;49.696;10.808;2023-06-22T11:44:53;44.89;43.52;46.26;;
64077;Laerm;51039;49.696;10.808;2023-06-22T11:47:18;44.87;43.57;46.12;;
64077;Laerm;51039;49.696;10.808;2023-06-22T11:49:44;44.92;43.68;46.11;;
64077;Laerm;51039;49.696;10.808;2023-06-22T11:52:09;44.91;43.56;46.06;;
64077;Laerm;51039;49.696;10.808;2023-06-22T11:54:34;44.91;43.33;46.25;;
64077;Laerm;51039;49.696;10.808;2023-06-22T11:57:00;44.91;43.55;46.31;;
64077;Laerm;51039;49.696;10.808;2023-06-22T11:59:25;44.92;43.48;46.10;;
64077;Laerm;51039;49.696;10.808;2023-06-22T12:01:50;44.93;43.39;46.31;;
64077;Laerm;51039;49.696;10.808;2023-06-22T12:04:16;44.94;43.48;46.10;;
64077;Laerm;51039;49.696;10.808;2023-06-22T12:06:42;44.94;43.39;46.33;;
64077;Laerm;51039;49.696;10.808;2023-06-22T12:09:09;44.96;43.70;46.17;;
64077;Laerm;51039;49.696;10.808;2023-06-22T12:11:34;45.00;43.38;46.42;;
64077;Laerm;51039;49.696;10.808;2023-06-22T12:14:00;45.01;43.66;46.44;;
64077;Laerm;51039;49.696;10.808;2023-06-22T12:16:30;44.99;43.77;46.50;;
64077;Laerm;51039;49.696;10.808;2023-06-22T12:18:55;45.01;43.44;46.34;;
64077;Laerm;51039;49.696;10.808;2023-06-22T12:21:20;44.98;43.49;46.39;;
64077;Laerm;51039;49.696;10.808;2023-06-22T12:23:45;44.99;43.60;46.26;;
64077;Laerm;51039;49.696;10.808;2023-06-22T12:26:11;45.01;43.71;46.50;;
64077;Laerm;51039;49.696;10.808;2023-06-22T12:28:36;45.04;43.67;46.17;;
64077;Laerm;51039;49.696;10.808;2023-06-22T12:31:01;45.03;43.72;46.32;;
64077;Laerm;51039;49.696;10.808;2023-06-22T12:33:27;45.02;43.64;46.50;;
64077;Laerm;51039;49.696;10.808;2023-06-22T12:35:52;45.00;43.69;46.21;;
64077;Laerm;51039;49.696;10.808;2023-06-22T12:38:17;45.02;43.61;46.44;;
64077;Laerm;51039;49.696;10.808;2023-06-22T12:40:43;45.05;43.79;46.35;;
64077;Laerm;51039;49.696;10.808;2023-06-22T12:43:08;45.06;43.67;46.45;;
64077;Laerm;51039;49.696;10.808;2023-06-22T12:45:33;45.05;43.75;46.48;;
64077;Laerm;51039;49.696;10.808;2023-06-22T12:47:59;45.04;43.67;46.52;;
64077;Laerm;51039;49.696;10.808;2023-06-22T12:50:25;45.05;43.60;46.42;;
64077;Laerm;51039;49.696;10.808;2023-06-22T12:52:50;45.01;43.61;46.48;;
64077;Laerm;51039;49.696;10.808;2023-06-22T12:55:15;44.99;43.31;46.35;;
64077;Laerm;51039;49.696;10.808;2023-06-22T12:57:41;45.00;43.24;46.15;;
64077;Laerm;51039;49.696;10.808;2023-06-22T13:00:07;45.00;43.68;46.22;;
64077;Laerm;51039;49.696;10.808;2023-06-22T13:02:34;45.03;43.57;46.41;;
64077;Laerm;51039;49.696;10.808;2023-06-22T13:05:01;45.06;43.48;46.35;;
64077;Laerm;51039;49.696;10.808;2023-06-22T13:07:27;45.02;43.31;46.26;;
64077;Laerm;51039;49.696;10.808;2023-06-22T13:09:52;45.00;43.54;46.22;;
64077;Laerm;51039;49.696;10.808;2023-06-22T13:12:17;44.97;43.55;46.36;;
64077;Laerm;51039;49.696;10.808;2023-06-22T13:14:43;44.99;43.51;46.40;;
64077;Laerm;51039;49.696;10.808;2023-06-22T13:17:08;45.00;43.53;46.31;;
64077;Laerm;51039;49.696;10.808;2023-06-22T13:19:34;45.02;43.67;46.40;;
64077;Laerm;51039;49.696;10.808;2023-06-22T13:21:59;45.01;43.65;46.30;;
64077;Laerm;51039;49.696;10.808;2023-06-22T13:24:25;45.04;43.60;46.45;;
64077;Laerm;51039;49.696;10.808;2023-06-22T13:26:50;44.96;43.41;46.25;;
64077;Laerm;51039;49.696;10.808;2023-06-22T13:29:15;44.96;43.57;46.51;;
64077;Laerm;51039;49.696;10.808;2023-06-22T13:31:41;45.02;43.63;46.43;;